createdAt,value
2022-10-18T00:00:17.526Z,1.80
2022-10-18T00:04:19.169Z,1.50
2022-10-18T00:08:21.155Z,1.50
2022-10-18T00:12:22.993Z,1.60
2022-10-18T00:16:25.155Z,1.83
2022-10-18T00:20:26.857Z,1.83
2022-10-18T00:24:28.586Z,1.38
2022-10-18T00:28:31.163Z,1.80
2022-10-18T00:32:40.278Z,1.60
2022-10-18T00:36:45.465Z,1.40
2022-10-18T00:40:47.048Z,1.70
2022-10-18T00:44:51.682Z,1.38
2022-10-18T00:53:07.206Z,1.58
2022-10-18T00:57:09.286Z,1.55
2022-10-18T01:01:10.912Z,1.52
2022-10-18T01:05:17.834Z,1.55
2022-10-18T01:09:28.178Z,1.65
2022-10-18T01:13:47.932Z,1.73
2022-10-18T01:18:10.892Z,1.33
2022-10-18T01:22:22.294Z,1.50
2022-10-18T01:27:01.213Z,1.90
2022-10-18T01:31:15.535Z,1.70
2022-10-18T01:35:26.422Z,1.52
2022-10-18T01:39:35.655Z,1.60
2022-10-18T01:43:39.797Z,1.55
2022-10-18T01:47:44.424Z,1.80
2022-10-18T01:51:46.202Z,1.52
2022-10-18T01:55:55.541Z,1.20
2022-10-18T02:00:05.269Z,1.45
2022-10-18T02:04:32.091Z,1.70
2022-10-18T02:09:04.096Z,1.70
2022-10-18T02:13:06.943Z,1.40
2022-10-18T02:17:11.551Z,1.58
2022-10-18T02:21:17.225Z,1.35
2022-10-18T02:25:21.033Z,1.30
2022-10-18T02:29:23.023Z,1.30
2022-10-18T02:33:33.627Z,1.63
2022-10-18T02:37:39.306Z,1.80
2022-10-18T02:41:41.520Z,1.42
2022-10-18T02:45:43.289Z,1.27
2022-10-18T02:49:44.871Z,1.50
2022-10-18T02:53:46.490Z,1.45
2022-10-18T02:57:48.098Z,1.30
2022-10-18T03:01:49.763Z,1.33
2022-10-18T03:05:52.632Z,1.95
2022-10-18T03:09:54.390Z,1.70
2022-10-18T03:13:56.019Z,1.33
2022-10-18T03:17:57.611Z,1.50
2022-10-18T03:21:59.345Z,1.60
2022-10-18T03:26:00.985Z,1.77
2022-10-18T03:30:02.719Z,1.40
2022-10-18T03:34:04.318Z,1.20
2022-10-18T03:38:05.939Z,1.50
2022-10-18T03:42:07.546Z,1.58
2022-10-18T03:46:09.242Z,1.63
2022-10-18T03:50:10.990Z,1.73
2022-10-18T03:54:12.591Z,1.30
2022-10-18T03:58:14.240Z,1.58
2022-10-18T04:02:15.837Z,1.45
2022-10-18T04:06:17.469Z,1.40
2022-10-18T04:10:20.250Z,1.38
2022-10-18T04:14:22.233Z,1.42
2022-10-18T04:18:23.826Z,1.60
2022-10-18T04:22:25.469Z,1.38
2022-10-18T04:26:27.146Z,1.20
2022-10-18T04:30:28.807Z,1.35
2022-10-18T04:34:30.476Z,1.38
2022-10-18T04:38:32.077Z,1.30
2022-10-18T04:42:33.657Z,1.33
2022-10-18T04:46:35.471Z,1.67
2022-10-18T04:50:37.127Z,1.65
2022-10-18T04:54:38.727Z,1.85
2022-10-18T04:58:40.310Z,1.60
2022-10-18T05:02:42.011Z,1.50
2022-10-18T05:06:43.704Z,1.42
2022-10-18T05:10:45.371Z,1.70
2022-10-18T05:14:46.971Z,1.40
2022-10-18T05:18:48.642Z,1.60
2022-10-18T05:22:50.269Z,1.70
2022-10-18T05:26:51.942Z,1.50
2022-10-18T05:30:53.563Z,1.38
2022-10-18T05:34:55.178Z,1.25
2022-10-18T05:38:59.646Z,1.77
2022-10-18T05:43:04.184Z,1.67
2022-10-18T05:47:06.429Z,1.42
2022-10-18T05:51:08.040Z,1.50
2022-10-18T05:55:09.646Z,1.50
2022-10-18T05:59:12.193Z,1.60
2022-10-18T06:03:14.063Z,1.73
2022-10-18T06:07:16.191Z,1.63
2022-10-18T06:11:20.841Z,1.33
2022-10-18T06:15:22.573Z,1.63
2022-10-18T06:19:24.221Z,1.60
2022-10-18T06:23:27.282Z,1.77
2022-10-18T06:27:29.187Z,1.65
2022-10-18T06:31:30.921Z,1.60
2022-10-18T06:35:32.521Z,1.50
2022-10-18T06:39:34.384Z,1.80
2022-10-18T06:43:36.474Z,1.70
2022-10-18T06:47:38.144Z,1.80
2022-10-18T06:51:39.852Z,1.73
2022-10-18T06:55:41.491Z,1.80
2022-10-18T06:59:43.446Z,1.60
2022-10-18T07:03:46.376Z,1.77
2022-10-18T07:07:50.624Z,1.55
2022-10-18T07:11:53.515Z,1.92
2022-10-18T07:16:06.889Z,1.70
2022-10-18T07:20:08.834Z,1.55
2022-10-18T07:24:10.479Z,1.77
2022-10-18T07:28:12.395Z,2.28
2022-10-18T07:32:14.368Z,2.17
2022-10-18T07:36:16.112Z,2.05
2022-10-18T07:40:17.886Z,1.88
2022-10-18T07:44:19.466Z,1.88
2022-10-18T07:48:21.341Z,1.80
2022-10-18T07:52:23.066Z,1.95
2022-10-18T07:56:24.982Z,2.70
2022-10-18T08:00:26.775Z,2.90
2022-10-18T08:04:28.637Z,2.20
2022-10-18T08:08:30.590Z,2.58
2022-10-18T08:12:33.433Z,1.70
2022-10-18T08:16:35.146Z,1.92
2022-10-18T08:20:37.078Z,2.40
2022-10-18T08:24:38.732Z,2.05
2022-10-18T08:28:46.030Z,2.00
2022-10-18T08:32:55.499Z,1.73
2022-10-18T08:36:57.066Z,2.20
2022-10-18T08:41:36.614Z,2.10
2022-10-18T08:45:43.200Z,1.92
2022-10-18T08:49:47.633Z,2.35
2022-10-18T08:53:56.819Z,2.35
2022-10-18T08:57:58.656Z,2.58
2022-10-18T09:02:03.215Z,2.35
2022-10-18T09:06:17.662Z,2.83
2022-10-18T09:10:53.866Z,2.88
2022-10-18T09:15:01.362Z,2.15
2022-10-18T09:19:27.469Z,2.25
2022-10-18T09:28:46.798Z,2.45
2022-10-18T09:33:01.256Z,4.00
2022-10-18T09:37:03.554Z,4.07
2022-10-18T09:41:10.354Z,3.15
2022-10-18T09:45:26.988Z,2.30
2022-10-18T09:49:38.653Z,2.25
2022-10-18T09:53:59.125Z,2.33
2022-10-18T09:58:05.524Z,2.22
2022-10-18T10:02:12.847Z,2.20
2022-10-18T10:06:17.168Z,2.05
2022-10-18T10:10:25.475Z,2.22
2022-10-18T10:14:30.191Z,2.60
2022-10-18T10:18:34.610Z,2.25
2022-10-18T10:22:38.808Z,2.00
2022-10-18T10:26:40.545Z,1.90
2022-10-18T10:30:42.451Z,2.33
2022-10-18T10:34:45.039Z,1.88
2022-10-18T10:39:01.882Z,2.20
2022-10-18T10:43:36.518Z,2.15
2022-10-18T10:47:38.824Z,2.70
2022-10-18T10:51:41.069Z,2.67
2022-10-18T10:55:42.698Z,2.70
2022-10-18T10:59:50.765Z,2.78
2022-10-18T11:03:56.005Z,3.03
2022-10-18T11:08:01.734Z,2.23
2022-10-18T11:12:30.636Z,3.03
2022-10-18T11:16:50.025Z,2.92
2022-10-18T11:21:01.143Z,2.78
2022-10-18T11:25:05.411Z,2.83
2022-10-18T11:29:16.791Z,2.67
2022-10-18T11:33:44.050Z,2.60
2022-10-18T11:42:46.235Z,2.92
2022-10-18T11:47:12.139Z,2.20
2022-10-18T11:52:06.794Z,2.90
2022-10-18T11:56:20.933Z,2.75
2022-10-18T12:00:31.706Z,2.60
2022-10-18T12:04:53.162Z,2.78
2022-10-18T12:09:16.712Z,2.55
2022-10-18T12:13:44.344Z,2.58
2022-10-18T12:17:52.490Z,2.60
2022-10-18T12:21:57.883Z,2.35
2022-10-18T12:26:04.479Z,2.67
2022-10-18T12:30:17.930Z,2.38
2022-10-18T12:34:22.301Z,2.40
2022-10-18T12:38:28.738Z,2.25
2022-10-18T12:42:33.525Z,2.03
2022-10-18T12:47:00.699Z,1.92
2022-10-18T12:51:07.530Z,2.10
2022-10-18T12:55:16.886Z,2.17
2022-10-18T12:59:19.536Z,2.15
2022-10-18T13:03:26.891Z,2.60
2022-10-18T13:07:31.998Z,2.63
2022-10-18T13:11:36.208Z,2.17
2022-10-18T13:15:44.325Z,2.97
2022-10-18T13:20:25.556Z,2.67
2022-10-18T13:24:38.935Z,2.20
2022-10-18T13:28:46.106Z,2.25
2022-10-18T13:33:01.132Z,2.13
2022-10-18T13:37:24.498Z,1.88
2022-10-18T13:41:46.350Z,2.45
2022-10-18T13:45:55.922Z,2.45
2022-10-18T13:55:07.341Z,2.25
2022-10-18T13:59:28.858Z,2.20
2022-10-18T14:04:02.975Z,2.05
2022-10-18T14:08:43.314Z,2.00
2022-10-18T14:12:52.150Z,2.08
2022-10-18T14:17:17.899Z,1.98
2022-10-18T14:21:31.128Z,2.20
2022-10-18T14:25:38.077Z,2.20
2022-10-18T14:29:40.698Z,2.28
2022-10-18T14:33:43.874Z,1.98
2022-10-18T14:37:48.206Z,2.00
2022-10-18T14:41:55.403Z,1.80
2022-10-18T14:46:08.804Z,1.90
2022-10-18T14:50:30.323Z,2.20
2022-10-18T14:54:36.014Z,1.90
2022-10-18T14:58:38.185Z,2.55
2022-10-18T15:02:39.956Z,2.17
2022-10-18T15:06:44.799Z,1.85
2022-10-18T15:10:46.927Z,1.70
2022-10-18T15:14:49.825Z,1.77
2022-10-18T15:19:08.210Z,2.17
2022-10-18T15:23:26.286Z,1.77
2022-10-18T15:27:32.871Z,1.50
2022-10-18T15:31:45.322Z,1.80
2022-10-18T15:35:46.966Z,1.80
2022-10-18T15:39:48.810Z,1.50
2022-10-18T15:43:50.456Z,1.77
2022-10-18T15:48:02.427Z,1.80
2022-10-18T15:52:22.628Z,1.75
2022-10-18T15:56:35.155Z,1.77
2022-10-18T16:00:36.790Z,1.73
2022-10-18T16:04:38.405Z,1.60
2022-10-18T16:08:45.802Z,1.90
2022-10-18T16:12:47.553Z,1.67
2022-10-18T16:16:52.840Z,1.60
2022-10-18T16:20:54.592Z,2.00
2022-10-18T16:24:56.192Z,1.83
2022-10-18T16:28:58.836Z,1.73
2022-10-18T16:33:00.487Z,2.33
2022-10-18T16:37:02.171Z,2.38
2022-10-18T16:41:05.482Z,1.95
2022-10-18T16:45:07.562Z,2.20
2022-10-18T16:49:23.398Z,2.53
2022-10-18T16:53:26.138Z,1.88
2022-10-18T16:57:27.754Z,2.58
2022-10-18T17:01:29.399Z,2.22
2022-10-18T17:05:31.133Z,2.15
2022-10-18T17:09:34.799Z,2.40
2022-10-18T17:13:36.391Z,3.20
2022-10-18T17:17:38.673Z,2.20
2022-10-18T17:21:40.338Z,2.95
2022-10-18T17:25:57.757Z,2.00
2022-10-18T17:30:09.099Z,2.60
2022-10-18T17:34:10.756Z,2.03
2022-10-18T17:38:12.405Z,1.80
2022-10-18T17:42:14.000Z,2.10
2022-10-18T17:46:15.900Z,2.22
2022-10-18T17:50:18.163Z,1.95
2022-10-18T17:54:19.754Z,2.25
2022-10-18T17:58:21.356Z,2.10
2022-10-18T18:02:23.014Z,2.50
2022-10-18T18:06:34.026Z,2.88
2022-10-18T18:10:36.108Z,2.92
2022-10-18T18:14:37.882Z,2.22
2022-10-18T18:18:39.546Z,2.15
2022-10-18T18:22:42.796Z,2.70
2022-10-18T18:26:44.725Z,2.38
2022-10-18T18:30:46.366Z,2.70
2022-10-18T18:34:48.086Z,2.85
2022-10-18T18:38:55.494Z,2.22
2022-10-18T18:43:07.317Z,2.40
2022-10-18T18:47:23.404Z,2.65
2022-10-18T18:51:25.891Z,2.45
2022-10-18T18:55:27.510Z,2.15
2022-10-18T18:59:29.146Z,2.25
2022-10-18T19:03:30.758Z,2.45
2022-10-18T19:07:34.810Z,2.45
2022-10-18T19:11:38.749Z,2.67
2022-10-18T19:15:40.335Z,2.20
2022-10-18T19:19:42.922Z,1.88
2022-10-18T19:23:44.672Z,2.35
2022-10-18T19:27:46.343Z,2.40
2022-10-18T19:31:49.223Z,2.13
2022-10-18T19:35:50.846Z,1.92
2022-10-18T19:39:52.430Z,2.10
2022-10-18T19:43:55.294Z,1.50
2022-10-18T19:47:56.891Z,1.67
2022-10-18T19:51:58.867Z,2.25
2022-10-18T19:56:02.605Z,2.47
2022-10-18T20:00:08.142Z,2.17
2022-10-18T20:04:12.656Z,2.20
2022-10-18T20:08:14.230Z,1.70
2022-10-18T20:12:15.830Z,1.80
2022-10-18T20:16:24.176Z,1.60
2022-10-18T20:20:28.634Z,1.70
2022-10-18T20:24:30.257Z,1.77
2022-10-18T20:28:32.599Z,1.73
2022-10-18T20:32:35.381Z,1.80
2022-10-18T20:36:37.078Z,1.83
2022-10-18T20:40:39.069Z,1.35
2022-10-18T20:44:43.271Z,1.88
2022-10-18T20:48:44.867Z,1.40
2022-10-18T20:52:51.017Z,1.75
2022-10-18T21:00:54.223Z,1.33
2022-10-18T21:04:55.866Z,1.38
2022-10-18T21:09:00.266Z,1.90
2022-10-18T21:13:01.903Z,1.65
2022-10-18T21:17:03.688Z,1.55
2022-10-18T21:21:09.613Z,1.33
2022-10-18T21:25:11.343Z,1.88
2022-10-18T21:29:15.976Z,1.25
2022-10-18T21:33:19.815Z,1.55
2022-10-18T21:37:21.427Z,1.42
2022-10-18T21:41:23.750Z,1.40
2022-10-18T21:45:25.342Z,1.50
2022-10-18T21:49:29.031Z,1.60
2022-10-18T21:53:30.801Z,1.55
2022-10-18T21:57:33.232Z,1.08
2022-10-18T22:01:37.840Z,1.50
2022-10-18T22:05:39.885Z,1.20
2022-10-18T22:09:41.873Z,1.20
2022-10-18T22:13:44.489Z,0.98
2022-10-18T22:17:46.138Z,1.40
2022-10-18T22:21:47.854Z,1.42
2022-10-18T22:25:49.914Z,1.27
2022-10-18T22:29:52.442Z,1.38
2022-10-18T22:33:56.074Z,1.60
2022-10-18T22:37:57.695Z,1.33
2022-10-18T22:41:59.529Z,1.08
2022-10-18T22:46:02.717Z,1.00
2022-10-18T22:50:04.633Z,1.00
2022-10-18T22:54:06.423Z,1.10
2022-10-18T22:58:08.047Z,1.52
2022-10-18T23:02:09.653Z,1.30
2022-10-18T23:06:21.051Z,1.10
2022-10-18T23:10:22.651Z,1.05
2022-10-18T23:14:24.259Z,1.15
2022-10-18T23:18:25.896Z,1.35
2022-10-18T23:22:27.505Z,1.10
2022-10-18T23:26:29.163Z,1.20
2022-10-18T23:30:30.811Z,1.05
2022-10-18T23:34:32.407Z,1.25
2022-10-18T23:38:35.091Z,1.05
2022-10-18T23:42:36.658Z,0.95
2022-10-18T23:46:38.237Z,0.90
2022-10-18T23:50:39.826Z,1.30
2022-10-18T23:54:41.568Z,0.80
2022-10-18T23:58:44.716Z,1.10
